Time;durP1;ratioP1;P1;durP2;ratioP2;P2;SDS_P1;SDS_P2;PMS_P1;PMS_P2;Temp;Humidity;BMP_temperature;BMP_pressure;BME280_temperature;BME280_humidity;BME280_pressure;Samples;Min_cycle;Max_cycle;Signal;HPM_P1;HPM_P2
2024/03/28 00:00:03;;;;;;;28.17;17.20;;;;;;;30.13;84.40;101037.28;5031451;28;69348;-31
2024/03/28 00:02:34;;;;;;;44.17;17.25;;;;;;;30.16;82.97;101042.25;5033929;28;66326;-31
2024/03/28 00:05:03;;;;;;;27.45;15.65;;;;;;;30.21;83.37;101044.34;5023768;28;70070;-31
2024/03/28 00:07:33;;;;;;;25.65;14.85;;;;;;;30.20;83.97;101050.78;5018819;28;66353;-31
2024/03/28 00:10:02;;;;;;;28.20;14.32;;;;;;;30.24;83.29;101057.47;5025545;28;70080;-32
2024/03/28 00:12:30;;;;;;;25.08;13.77;;;;;;;30.27;84.29;101068.69;5033081;28;66125;-32
2024/03/28 00:14:59;;;;;;;25.95;13.73;;;;;;;30.28;82.93;101072.22;5038134;28;70189;-31
2024/03/28 00:17:28;;;;;;;23.35;13.93;;;;;;;30.33;83.44;101079.72;4987866;28;65427;-31
2024/03/28 00:19:57;;;;;;;26.48;14.77;;;;;;;30.37;83.35;101089.06;5016157;28;70351;-34
2024/03/28 00:22:25;;;;;;;26.63;14.07;;;;;;;30.39;85.20;101089.69;5022500;28;66253;-31
2024/03/28 00:24:54;;;;;;;21.02;13.80;;;;;;;30.40;83.28;101086.78;5020818;28;70745;-31
2024/03/28 00:27:23;;;;;;;26.00;14.52;;;;;;;30.47;85.37;101087.59;5012987;28;65864;-31
2024/03/28 00:29:52;;;;;;;20.33;14.25;;;;;;;30.49;83.21;101096.34;5036676;28;70452;-32
2024/03/28 00:32:21;;;;;;;24.17;13.57;;;;;;;30.55;83.37;101102.78;5024174;28;65879;-31
2024/03/28 00:34:49;;;;;;;25.55;13.95;;;;;;;30.54;83.61;101103.81;5026496;28;70505;-32
2024/03/28 00:37:18;;;;;;;17.98;13.13;;;;;;;30.55;83.22;101105.47;5035686;28;66491;-32
2024/03/28 00:39:50;;;;;;;23.50;13.85;;;;;;;30.62;83.27;101111.72;5024867;28;69387;-32
2024/03/28 00:42:19;;;;;;;24.70;13.90;;;;;;;30.60;83.87;101102.97;5024811;28;65836;-31
2024/03/28 00:44:48;;;;;;;21.58;13.98;;;;;;;30.62;84.61;101111.72;5042068;28;70453;-33
2024/03/28 00:47:17;;;;;;;16.58;13.48;;;;;;;30.65;83.62;101114.00;5041997;28;66874;-31
2024/03/28 00:49:46;;;;;;;19.73;12.98;;;;;;;30.67;84.17;101109.22;4993294;28;70248;-32
2024/03/28 00:52:15;;;;;;;17.42;12.93;;;;;;;30.71;84.78;101115.84;5036105;28;65395;-32
2024/03/28 00:54:44;;;;;;;20.75;13.60;;;;;;;30.71;84.33;101118.56;5048915;28;70222;-31
2024/03/28 00:57:12;;;;;;;19.20;13.30;;;;;;;30.76;85.03;101127.91;5052554;28;65485;-32
2024/03/28 00:59:41;;;;;;;24.75;14.40;;;;;;;30.78;84.40;101136.66;5012921;28;69708;-31
2024/03/28 01:02:11;;;;;;;18.48;12.63;;;;;;;30.84;82.24;101131.25;5022055;28;66484;-31
2024/03/28 01:04:40;;;;;;;19.40;12.23;;;;;;;30.89;81.95;101138.72;5003541;28;69426;-31
2024/03/28 01:07:08;;;;;;;20.05;12.90;;;;;;;30.92;81.35;101139.16;5019114;28;66299;-31
2024/03/28 01:09:37;;;;;;;16.45;12.35;;;;;;;30.96;81.11;101150.38;5019819;28;69330;-31
2024/03/28 01:12:06;;;;;;;17.42;12.60;;;;;;;30.97;81.60;101146.63;5039923;28;67053;-31
2024/03/28 01:14:35;;;;;;;20.67;12.13;;;;;;;31.00;81.28;101151.59;5044358;28;70484;-33
2024/03/28 01:17:04;;;;;;;17.23;12.63;;;;;;;31.04;80.73;101152.03;5024913;28;66627;-31
2024/03/28 01:19:33;;;;;;;12.73;11.52;;;;;;;31.02;80.68;101149.50;5040588;28;70587;-31
2024/03/28 01:22:01;;;;;;;15.45;12.02;;;;;;;31.06;80.67;101156.16;5018294;28;65220;-30
2024/03/28 01:24:30;;;;;;;17.73;12.02;;;;;;;31.06;80.97;101150.72;5027867;28;70225;-30
2024/03/28 01:26:59;;;;;;;15.43;12.60;;;;;;;31.08;80.94;101158.66;5001997;28;66713;-30
2024/03/28 01:29:28;;;;;;;16.75;11.98;;;;;;;31.11;80.54;101158.22;5024905;28;70181;-31
2024/03/28 01:31:58;;;;;;;14.82;11.70;;;;;;;31.12;80.19;101155.31;5001526;28;66291;-31
2024/03/28 01:34:27;;;;;;;17.80;12.40;;;;;;;31.16;80.04;101161.94;5042660;28;69527;-32
2024/03/28 01:36:56;;;;;;;15.30;12.55;;;;;;;31.07;80.00;101135.34;4998082;28;65846;-31
2024/03/28 01:39:25;;;;;;;16.55;11.40;;;;;;;31.16;80.20;101145.69;5021203;28;70820;-31
2024/03/28 01:41:54;;;;;;;14.32;11.82;;;;;;;31.24;79.88;101151.91;5029577;28;66260;-32
2024/03/28 01:44:24;;;;;;;13.75;11.82;;;;;;;31.03;79.67;101118.66;5041060;28;69615;-32
2024/03/28 01:46:53;;;;;;;13.25;11.60;;;;;;;31.31;79.88;101152.69;5021761;28;65983;-30
2024/03/28 01:49:23;;;;;;;18.10;12.15;;;;;;;31.10;79.53;101116.75;5008363;28;70616;-31
2024/03/28 01:51:53;;;;;;;15.82;12.25;;;;;;;31.34;79.35;101149.56;5022748;28;64569;-30
2024/03/28 01:54:22;;;;;;;21.50;12.02;;;;;;;31.31;79.57;101147.28;5017433;28;69905;-30
2024/03/28 01:56:53;;;;;;;11.93;10.68;;;;;;;31.38;79.30;101156.25;5022378;28;65713;-34
2024/03/28 01:59:22;;;;;;;11.77;10.60;;;;;;;31.41;79.27;101169.38;5019802;28;70212;-34
2024/03/28 02:01:51;;;;;;;15.98;10.63;;;;;;;31.43;79.02;101172.69;5018996;28;66681;-34
2024/03/28 02:04:21;;;;;;;14.95;10.35;;;;;;;31.46;79.10;101161.41;5021876;28;69645;-34
2024/03/28 02:06:51;;;;;;;11.95;10.85;;;;;;;31.49;78.97;101166.41;5023375;28;66749;-42
2024/03/28 02:09:21;;;;;;;16.25;11.32;;;;;;;31.49;79.03;101158.25;5035283;28;70335;-34
2024/03/28 02:11:50;;;;;;;12.95;10.30;;;;;;;31.56;78.74;101161.75;5018779;28;65268;-33
2024/03/28 02:14:19;;;;;;;13.43;11.05;;;;;;;31.59;78.83;101165.91;5028383;28;70590;-33
2024/03/28 02:16:48;;;;;;;14.10;10.77;;;;;;;31.64;78.45;101162.56;5023819;28;66450;-34
2024/03/28 02:19:17;;;;;;;12.57;10.57;;;;;;;31.66;78.66;101160.47;5049749;28;70329;-35
2024/03/28 02:21:47;;;;;;;12.80;10.07;;;;;;;31.51;78.18;101130.91;5022008;28;65870;-34
2024/03/28 02:24:16;;;;;;;14.32;11.20;;;;;;;31.72;78.25;101154.16;5030115;28;70427;-33
2024/03/28 02:26:45;;;;;;;12.70;10.98;;;;;;;31.59;78.33;101133.38;5018953;28;66140;-35
2024/03/28 02:29:14;;;;;;;11.50;10.20;;;;;;;31.78;78.33;101147.84;5021545;28;70335;-33
2024/03/28 02:31:43;;;;;;;11.05;9.98;;;;;;;31.81;78.05;101152.81;5022216;28;66226;-33
2024/03/28 02:34:12;;;;;;;14.80;10.38;;;;;;;31.84;78.11;101152.38;5022334;28;70316;-34
2024/03/28 02:36:40;;;;;;;10.68;9.70;;;;;;;31.89;77.90;101155.28;5025192;28;65703;-33
2024/03/28 02:39:11;;;;;;;10.60;9.45;;;;;;;31.90;77.67;101156.09;5039224;28;69901;-34
2024/03/28 02:41:39;;;;;;;10.25;9.32;;;;;;;31.94;77.86;101163.63;5033006;28;66273;-33
2024/03/28 02:44:08;;;;;;;11.88;9.30;;;;;;;31.94;77.65;101160.06;5021648;28;70321;-33
2024/03/28 02:46:37;;;;;;;10.50;9.50;;;;;;;32.01;77.89;101158.97;5039482;28;66772;-33
2024/03/28 02:49:06;;;;;;;13.43;9.80;;;;;;;32.04;77.41;101163.13;5037593;28;70224;-34
2024/03/28 02:51:35;;;;;;;12.50;9.75;;;;;;;32.07;77.65;101159.13;5016952;28;65225;-34
2024/03/28 02:54:04;;;;;;;10.43;9.20;;;;;;;32.08;77.80;101166.22;5030551;28;69660;-34
2024/03/28 02:56:33;;;;;;;10.15;9.10;;;;;;;32.13;77.69;101169.09;5027841;28;66768;-34
2024/03/28 02:59:02;;;;;;;10.90;8.88;;;;;;;32.16;77.66;101155.09;5021106;28;70243;-32
2024/03/28 03:01:33;;;;;;;10.43;9.40;;;;;;;32.17;77.65;101156.75;5030068;28;66276;-36
2024/03/28 03:04:02;;;;;;;11.13;9.57;;;;;;;32.22;77.46;101156.91;5034797;28;70172;-33
2024/03/28 03:06:30;;;;;;;10.40;9.52;;;;;;;32.27;77.44;101157.06;5032359;28;66950;-33
2024/03/28 03:08:59;;;;;;;10.52;9.27;;;;;;;32.31;77.25;101152.84;5025663;28;69164;-34
2024/03/28 03:11:28;;;;;;;9.50;8.77;;;;;;;32.33;77.27;101144.50;5027884;28;64819;-33
2024/03/28 03:13:57;;;;;;;9.40;8.55;;;;;;;32.34;77.17;101141.53;5025804;28;69082;-35
2024/03/28 03:16:26;;;;;;;9.57;8.68;;;;;;;32.39;77.09;101147.13;5037823;28;66387;-34
2024/03/28 03:18:55;;;;;;;8.55;7.93;;;;;;;32.41;77.43;101145.03;5020076;28;69983;-34
2024/03/28 03:21:25;;;;;;;11.45;9.00;;;;;;;32.46;77.12;101134.34;5044875;28;65987;-37
2024/03/28 03:24:00;;;;;;;9.57;8.63;;;;;;;32.50;76.65;101132.00;5022738;28;70619;-35
2024/03/28 03:26:34;;;;;;;9.02;8.35;;;;;;;32.54;76.94;101127.81;5019911;28;65731;-35
2024/03/28 03:34:39;;;;;;;8.93;8.00;;;;;;;32.64;76.84;101124.53;5034138;28;70423;-35
2024/03/28 03:37:14;;;;;;;9.38;8.00;;;;;;;32.45;77.00;101083.78;5039306;28;67121;-34
2024/03/28 03:39:43;;;;;;;8.95;8.10;;;;;;;32.70;76.66;101118.19;5024785;28;70473;-33
2024/03/28 03:42:14;;;;;;;13.15;8.65;;;;;;;32.75;76.60;101115.63;5048308;28;66012;-35
2024/03/28 03:44:44;;;;;;;12.10;8.70;;;;;;;32.77;76.55;101102.66;5028120;28;70785;-33
2024/03/28 03:47:13;;;;;;;8.43;7.80;;;;;;;32.80;76.49;101107.63;5016751;28;66673;-34
2024/03/28 03:49:45;;;;;;;8.52;7.72;;;;;;;32.82;76.39;101094.66;5018097;28;69660;-34
2024/03/28 03:52:14;;;;;;;9.05;8.20;;;;;;;32.87;76.35;101086.63;5018928;28;64971;-34
2024/03/28 03:54:44;;;;;;;7.95;7.35;;;;;;;32.85;76.42;101077.09;5016348;28;70121;-34
2024/03/28 03:57:13;;;;;;;13.30;8.05;;;;;;;32.91;76.18;101076.97;5023400;28;66448;-34
2024/03/28 03:59:42;;;;;;;8.50;7.70;;;;;;;32.98;76.48;101086.91;5052396;28;69800;-34
2024/03/28 04:02:11;;;;;;;8.15;7.32;;;;;;;32.99;76.25;101077.69;5024132;28;65910;-34
2024/03/28 04:04:40;;;;;;;7.70;7.10;;;;;;;33.04;76.24;101080.59;5033260;28;70741;-35
2024/03/28 04:07:10;;;;;;;8.60;7.75;;;;;;;33.06;76.12;101078.47;5045985;28;65472;-34
2024/03/28 04:09:39;;;;;;;8.35;7.55;;;;;;;33.13;76.17;101079.22;5019237;28;69802;-36
2024/03/28 04:12:08;;;;;;;7.82;7.15;;;;;;;33.13;75.79;101074.63;5024738;28;66692;-34
2024/03/28 04:14:37;;;;;;;8.07;7.25;;;;;;;33.21;76.17;101069.91;5019893;28;70637;-34
2024/03/28 04:17:07;;;;;;;8.38;7.47;;;;;;;33.23;75.93;101075.94;5027617;28;65774;-34
2024/03/28 04:19:36;;;;;;;8.20;7.53;;;;;;;33.27;75.82;101075.25;5032030;28;70567;-34
2024/03/28 04:22:05;;;;;;;7.78;7.13;;;;;;;33.30;75.90;101088.38;5029871;28;65141;-35
2024/03/28 04:24:39;;;;;;;8.18;7.07;;;;;;;33.33;76.04;101068.88;5023889;28;70407;-36
2024/03/28 04:27:09;;;;;;;7.88;7.15;;;;;;;33.36;75.68;101062.97;5051532;28;65670;-34
2024/03/28 04:29:41;;;;;;;7.20;6.60;;;;;;;33.38;75.68;101060.84;5043126;28;70053;-35
2024/03/28 04:32:10;;;;;;;;;;;;;;;33.38;75.86;101066.28;5004843;28;66830;-33
2024/03/28 04:34:39;;;;;;;7.97;7.20;;;;;;;33.47;75.72;101057.81;5045336;28;70515;-33
2024/03/28 04:37:08;;;;;;;8.82;7.22;;;;;;;33.50;75.73;101057.34;5012732;28;65852;-34
2024/03/28 04:39:36;;;;;;;7.25;6.75;;;;;;;33.53;75.53;101043.28;5021443;28;70809;-33
2024/03/28 04:42:05;;;;;;;7.72;7.10;;;;;;;33.33;75.60;101009.06;5002975;28;65794;-35
2024/03/28 04:44:35;;;;;;;7.65;7.05;;;;;;;33.60;75.64;101041.31;5036606;28;70046;-33
2024/03/28 04:47:04;;;;;;;10.35;7.05;;;;;;;33.66;75.74;101031.38;5002498;28;66929;-34
2024/03/28 04:49:33;;;;;;;7.53;6.88;;;;;;;33.68;75.49;101024.59;5036560;28;70454;-34
2024/03/28 04:52:02;;;;;;;7.88;6.97;;;;;;;33.71;75.63;101021.44;5033104;28;66086;-33
2024/03/28 04:54:31;;;;;;;7.88;7.28;;;;;;;33.74;75.48;101010.06;5010488;28;69271;-33
2024/03/28 04:57:00;;;;;;;9.68;7.32;;;;;;;33.75;75.30;101003.56;5023167;28;67100;-34
2024/03/28 04:59:32;;;;;;;8.52;7.50;;;;;;;33.84;75.31;101000.47;5008375;28;69333;-34
2024/03/28 05:02:01;;;;;;;7.28;6.78;;;;;;;33.86;75.26;101009.25;5038607;28;65722;-34
2024/03/28 05:04:30;;;;;;;7.90;7.15;;;;;;;33.88;75.01;100996.19;5053207;28;69149;-33
2024/03/28 05:06:59;;;;;;;7.88;7.30;;;;;;;33.75;75.05;100957.31;5036975;28;66629;-34
2024/03/28 05:09:28;;;;;;;7.75;6.85;;;;;;;33.94;75.27;100974.31;5037411;28;69857;-35
2024/03/28 05:11:58;;;;;;;7.85;7.00;;;;;;;34.00;75.30;100991.59;5034444;28;66773;-33
2024/03/28 05:14:27;;;;;;;8.35;7.10;;;;;;;34.01;75.32;100971.47;5019323;28;70232;-33
2024/03/28 05:16:56;;;;;;;7.38;6.88;;;;;;;34.02;74.91;100973.97;5024973;28;65860;-34
2024/03/28 05:19:27;;;;;;;8.02;7.35;;;;;;;34.02;75.48;100959.53;5022131;28;70250;-33
2024/03/28 05:21:56;;;;;;;7.60;6.88;;;;;;;34.07;75.14;100965.09;5021360;28;66006;-36
2024/03/28 05:24:28;;;;;;;8.70;7.55;;;;;;;34.09;75.31;100962.97;5003547;28;69768;-37
2024/03/28 05:26:57;;;;;;;7.45;6.85;;;;;;;34.13;75.19;100957.84;5021822;28;66427;-35
2024/03/28 05:29:27;;;;;;;7.47;6.80;;;;;;;34.14;75.33;100954.91;4955318;28;70028;-34
2024/03/28 05:31:56;;;;;;;8.13;7.38;;;;;;;34.17;75.27;100954.41;5027495;28;65916;-33
2024/03/28 05:34:25;;;;;;;7.03;6.43;;;;;;;34.20;75.23;100937.59;5022458;28;71924;-34
2024/03/28 05:36:54;;;;;;;7.20;6.68;;;;;;;34.21;74.67;100922.94;5027890;28;66955;-33
2024/03/28 05:39:23;;;;;;;8.10;7.30;;;;;;;34.26;75.12;100919.47;5022403;28;69809;-34
2024/03/28 05:41:52;;;;;;;8.10;7.40;;;;;;;34.30;74.64;100915.19;5018941;28;66896;-34
2024/03/28 05:44:21;;;;;;;7.40;6.78;;;;;;;34.30;75.27;100903.47;5020655;28;69330;-34
2024/03/28 05:46:50;;;;;;;7.75;6.88;;;;;;;34.37;75.01;100904.97;5032083;28;66143;-35
2024/03/28 05:49:19;;;;;;;7.60;6.90;;;;;;;34.41;74.72;100906.16;5034978;28;69964;-34
2024/03/28 05:51:48;;;;;;;7.68;7.00;;;;;;;34.40;75.08;100892.78;5037860;28;65901;-33
2024/03/28 05:54:17;;;;;;;7.50;6.68;;;;;;;34.42;74.85;100890.63;5019372;28;69658;-34
2024/03/28 05:56:46;;;;;;;7.40;6.53;;;;;;;34.46;74.62;100891.78;5055535;28;67138;-34
2024/03/28 05:59:15;;;;;;;7.22;6.68;;;;;;;34.48;74.99;100885.03;5038652;28;70151;-34
2024/03/28 06:01:44;;;;;;;6.93;6.45;;;;;;;34.54;74.61;100883.22;5020232;28;66431;-35
2024/03/28 06:04:13;;;;;;;6.70;6.10;;;;;;;34.52;74.39;100860.88;5015972;28;70566;-34
2024/03/28 06:06:43;;;;;;;7.63;7.03;;;;;;;34.54;74.51;100866.88;5004074;28;66892;-42
2024/03/28 06:09:14;;;;;;;7.60;7.10;;;;;;;34.57;74.43;100871.03;4997725;28;69654;-34
2024/03/28 06:11:43;;;;;;;7.63;6.90;;;;;;;34.59;74.93;100866.19;5015419;28;67442;-35
2024/03/28 06:14:12;;;;;;;7.28;6.78;;;;;;;34.64;75.12;100874.44;5012726;28;69806;-34
2024/03/28 06:16:41;;;;;;;7.53;6.93;;;;;;;34.59;74.54;100850.66;5041800;28;66421;-34
2024/03/28 06:19:11;;;;;;;7.53;6.85;;;;;;;34.66;74.75;100854.06;5036545;28;70137;-33
2024/03/28 06:21:43;;;;;;;6.78;6.28;;;;;;;34.69;74.76;100856.28;5039558;28;66295;-35
2024/03/28 06:24:11;;;;;;;7.75;7.05;;;;;;;34.70;74.75;100846.19;5055526;28;69559;-34
2024/03/28 06:26:41;;;;;;;7.38;6.82;;;;;;;34.77;74.47;100848.75;5043732;28;66980;-34
2024/03/28 06:29:10;;;;;;;7.70;7.10;;;;;;;34.80;74.17;100850.97;5036302;28;69398;-36
2024/03/28 06:31:40;;;;;;;6.43;5.93;;;;;;;34.80;74.62;100838.19;5035562;28;66200;-34
2024/03/28 06:34:09;;;;;;;6.53;6.07;;;;;;;34.81;74.52;100834.41;5039265;28;69761;-35
2024/03/28 06:36:38;;;;;;;6.97;6.43;;;;;;;34.89;74.43;100841.34;5054123;28;67177;-35
2024/03/28 06:39:08;;;;;;;6.82;6.32;;;;;;;34.89;73.89;100835.88;5056071;28;68832;-34
2024/03/28 06:41:37;;;;;;;7.07;6.57;;;;;;;34.91;73.99;100839.19;5014489;28;65826;-34
2024/03/28 06:44:09;;;;;;;6.78;6.28;;;;;;;34.92;74.11;100829.94;5036284;28;69595;-35
2024/03/28 06:46:40;;;;;;;6.82;6.22;;;;;;;34.96;74.00;100827.53;5027459;28;65376;-34
2024/03/28 06:49:10;;;;;;;7.15;6.13;;;;;;;34.80;74.24;100785.59;5054593;28;70687;-34
2024/03/28 06:51:39;;;;;;;7.05;6.38;;;;;;;35.03;73.83;100814.56;5055904;28;66285;-34
2024/03/28 06:54:08;;;;;;;6.70;6.15;;;;;;;35.05;73.60;100807.78;5055416;28;70308;-33
2024/03/28 06:56:37;;;;;;;7.93;6.35;;;;;;;35.06;73.66;100809.47;5038718;28;65997;-34
2024/03/28 06:59:06;;;;;;;6.43;6.03;;;;;;;35.12;73.36;100805.72;5022058;28;70112;-34
2024/03/28 07:01:35;;;;;;;7.70;6.20;;;;;;;35.16;73.93;100799.75;5030179;28;65594;-34
2024/03/28 07:04:04;;;;;;;6.57;6.13;;;;;;;35.17;73.76;100798.69;5023066;28;70301;-35
2024/03/28 07:06:33;;;;;;;6.63;5.95;;;;;;;35.14;73.82;100795.41;5019621;28;65757;-34
2024/03/28 07:09:04;;;;;;;6.60;6.00;;;;;;;35.18;73.54;100794.88;5023070;28;69872;-35
2024/03/28 07:11:34;;;;;;;7.20;6.20;;;;;;;35.21;73.78;100794.38;5021818;28;65648;-34
2024/03/28 07:14:07;;;;;;;6.32;5.93;;;;;;;35.22;73.80;100785.13;5046095;28;43139;-34
2024/03/28 07:16:36;;;;;;;6.10;5.68;;;;;;;35.24;73.33;100777.50;5029474;28;66884;-34
2024/03/28 07:19:05;;;;;;;5.85;5.43;;;;;;;35.27;73.47;100774.28;5044170;28;70187;-34
2024/03/28 07:21:34;;;;;;;6.75;6.07;;;;;;;35.25;73.74;100760.09;5028444;28;67103;-34
2024/03/28 07:24:05;;;;;;;6.70;6.20;;;;;;;35.27;73.56;100757.91;5047689;28;70403;-34
2024/03/28 07:26:36;;;;;;;6.20;5.70;;;;;;;35.33;73.14;100762.38;5030312;28;65758;-34
2024/03/28 07:29:05;;;;;;;6.40;5.78;;;;;;;35.36;73.64;100756.41;5048091;28;69341;-34
2024/03/28 07:31:37;;;;;;;9.10;5.63;;;;;;;35.36;73.00;100753.69;5033782;28;65388;-34
2024/03/28 07:34:09;;;;;;;6.25;5.82;;;;;;;35.39;73.50;100746.91;5018209;28;69150;-34
2024/03/28 07:36:39;;;;;;;6.72;6.22;;;;;;;35.41;73.01;100750.19;5034785;28;65308;-34
2024/03/28 07:39:16;;;;;;;6.40;5.80;;;;;;;35.45;73.17;100748.59;5015350;28;69973;-35
2024/03/28 07:41:45;;;;;;;6.00;5.57;;;;;;;35.46;73.04;100748.34;5026309;28;66215;-35
2024/03/28 07:44:17;;;;;;;5.53;5.22;;;;;;;35.48;73.13;100734.44;5014459;28;69769;-34
2024/03/28 07:46:45;;;;;;;;;;;;;;;35.46;72.81;100731.97;5024466;28;66321;-35
2024/03/28 07:49:14;;;;;;;6.15;5.55;;;;;;;35.54;73.33;100736.97;4987472;28;70295;-34
2024/03/28 07:51:43;;;;;;;10.30;5.85;;;;;;;35.56;72.61;100726.66;5019718;28;66211;-34
2024/03/28 07:54:14;;;;;;;5.65;5.15;;;;;;;35.56;72.74;100726.66;5026634;28;69140;-33
2024/03/28 07:56:43;;;;;;;5.65;5.25;;;;;;;35.57;73.11;100719.31;5017719;28;65790;-34
2024/03/28 07:59:12;;;;;;;6.13;5.72;;;;;;;35.60;72.59;100712.50;5019353;28;70229;-35
2024/03/28 08:01:43;;;;;;;6.40;5.35;;;;;;;35.62;72.55;100719.34;5031560;28;66013;-34
2024/03/28 08:04:12;;;;;;;5.72;5.15;;;;;;;35.62;72.45;100718.53;5036085;28;69613;-33
2024/03/28 08:06:42;;;;;;;7.47;5.40;;;;;;;35.67;72.44;100710.41;5041843;28;66398;-34
2024/03/28 08:09:11;;;;;;;7.30;6.63;;;;;;;35.61;72.79;100701.34;5040092;28;69605;-34
2024/03/28 08:11:42;;;;;;;5.50;5.18;;;;;;;35.73;72.90;100703.91;5018701;28;65321;-34
2024/03/28 08:14:11;;;;;;;7.18;5.47;;;;;;;35.71;72.82;100701.44;4995469;28;69899;-34
2024/03/28 08:16:41;;;;;;;7.53;5.43;;;;;;;35.76;72.80;100706.13;5003233;28;65022;-34
2024/03/28 08:19:10;;;;;;;6.47;5.63;;;;;;;35.77;72.16;100705.88;5025852;28;70223;-33
2024/03/28 08:21:39;;;;;;;8.60;5.57;;;;;;;35.77;72.44;100697.69;5035605;28;66527;-36
2024/03/28 08:24:11;;;;;;;6.35;5.75;;;;;;;35.58;72.79;100660.94;5027301;28;69226;-34
2024/03/28 08:26:41;;;;;;;6.50;5.78;;;;;;;35.74;72.42;100694.63;5029839;28;65862;-33
2024/03/28 08:29:10;;;;;;;6.88;6.20;;;;;;;35.75;72.35;100690.84;4999554;28;69988;-33
2024/03/28 08:31:43;;;;;;;6.20;5.65;;;;;;;35.73;72.57;100677.44;5036374;28;65828;-34
2024/03/28 08:34:12;;;;;;;6.15;5.63;;;;;;;35.74;72.74;100679.09;5022713;28;69584;-34
2024/03/28 08:36:41;;;;;;;7.22;5.40;;;;;;;35.79;72.85;100689.22;5030815;28;66292;-35
2024/03/28 08:39:12;;;;;;;6.72;5.38;;;;;;;35.80;72.42;100685.41;5027293;28;69663;-34
2024/03/28 08:41:41;;;;;;;5.75;5.22;;;;;;;35.82;72.92;100686.00;5028618;28;66205;-35
2024/03/28 08:44:11;;;;;;;6.50;5.90;;;;;;;35.85;72.70;100685.47;5032719;28;69836;-34
2024/03/28 08:46:44;;;;;;;5.53;5.00;;;;;;;35.87;72.32;100694.22;5036834;28;65732;-34
2024/03/28 08:49:14;;;;;;;5.65;5.15;;;;;;;35.86;72.08;100684.41;5018376;28;70072;-33
2024/03/28 08:51:43;;;;;;;6.60;6.00;;;;;;;35.89;72.66;100694.81;5018452;28;66958;-35
2024/03/28 08:54:12;;;;;;;6.28;5.78;;;;;;;35.89;72.77;100696.72;5020696;28;70347;-34
2024/03/28 08:56:41;;;;;;;6.57;5.93;;;;;;;35.91;71.96;100689.06;5016456;28;65972;-34
2024/03/28 08:59:11;;;;;;;6.53;5.53;;;;;;;35.92;72.64;100707.94;5021199;28;70409;-33
2024/03/28 09:01:39;;;;;;;9.20;5.60;;;;;;;35.94;72.31;100705.78;5019138;28;64906;-35
2024/03/28 09:04:08;;;;;;;6.32;5.72;;;;;;;35.80;71.95;100679.97;5019250;28;69975;-33
2024/03/28 09:06:37;;;;;;;7.03;5.30;;;;;;;35.99;71.67;100703.06;5020929;28;65786;-34
2024/03/28 09:09:07;;;;;;;5.22;4.85;;;;;;;35.96;72.01;100714.50;5025751;28;70481;-34
2024/03/28 09:11:40;;;;;;;5.22;4.80;;;;;;;36.03;71.78;100709.66;5028760;28;65636;-34
2024/03/28 09:14:09;;;;;;;7.13;5.65;;;;;;;36.05;71.68;100714.88;5025613;28;71065;-34
2024/03/28 09:16:38;;;;;;;5.90;5.28;;;;;;;36.12;71.77;100718.22;5025943;28;66678;-36
2024/03/28 09:19:07;;;;;;;11.15;5.97;;;;;;;36.03;72.05;100715.13;5029789;28;70174;-35
2024/03/28 09:21:37;;;;;;;6.82;6.15;;;;;;;35.92;72.36;100721.56;5033386;28;65859;-34
2024/03/28 09:24:09;;;;;;;9.43;5.25;;;;;;;35.92;73.04;100724.31;5039653;28;69131;-34
2024/03/28 09:26:38;;;;;;;16.08;5.72;;;;;;;35.87;73.20;100732.44;5039213;28;67136;-33
2024/03/28 09:29:07;;;;;;;7.90;6.10;;;;;;;35.88;72.60;100739.53;5046283;28;69638;-35
2024/03/28 09:31:36;;;;;;;16.00;6.22;;;;;;;35.86;72.82;100741.72;5030120;28;65940;-34
2024/03/28 09:34:05;;;;;;;11.10;5.80;;;;;;;35.83;72.86;100742.25;5002950;28;70405;-35
2024/03/28 09:36:35;;;;;;;9.27;6.25;;;;;;;35.72;73.47;100718.66;5028008;28;66127;-35
2024/03/28 09:39:06;;;;;;;6.82;5.80;;;;;;;35.85;73.43;100750.16;5025735;28;69759;-34
2024/03/28 09:41:36;;;;;;;7.72;5.88;;;;;;;35.80;73.11;100759.09;5025788;28;65074;-34
2024/03/28 09:44:10;;;;;;;7.68;5.82;;;;;;;35.63;72.91;100731.09;5030049;28;69778;-34
2024/03/28 09:46:41;;;;;;;9.63;6.20;;;;;;;35.82;73.13;100773.31;5029902;28;66301;-35
2024/03/28 09:49:11;;;;;;;6.47;6.00;;;;;;;35.79;73.73;100780.13;5025865;28;69916;-35
2024/03/28 09:51:40;;;;;;;8.32;6.13;;;;;;;35.85;73.96;100783.72;5024738;28;65359;-35
2024/03/28 09:54:11;;;;;;;11.80;6.50;;;;;;;35.78;73.55;100794.03;5029058;28;70173;-34
2024/03/28 09:56:40;;;;;;;8.30;6.60;;;;;;;35.80;74.08;100791.84;5025438;28;65760;-36
2024/03/28 09:59:09;;;;;;;7.78;6.97;;;;;;;35.75;73.63;100789.09;5038769;28;69340;-35
2024/03/28 10:01:43;;;;;;;12.00;6.25;;;;;;;35.70;74.50;100792.56;5019873;28;66312;-34
2024/03/28 10:04:18;;;;;;;10.68;6.47;;;;;;;35.74;74.82;100803.78;5033296;28;69293;-35
2024/03/28 10:06:55;;;;;;;7.22;6.25;;;;;;;35.56;74.31;100770.31;5017935;28;65236;-35
2024/03/28 10:09:24;;;;;;;7.57;6.75;;;;;;;35.75;74.77;100805.47;5043124;28;70312;-34
2024/03/28 10:11:53;;;;;;;6.90;6.28;;;;;;;35.68;75.18;100804.81;5042298;28;66501;-34
2024/03/28 10:14:22;;;;;;;8.02;7.20;;;;;;;35.67;75.37;100803.19;5031020;28;69577;-35
2024/03/28 10:17:02;;;;;;;11.20;7.22;;;;;;;35.52;75.46;100777.34;5033385;28;66333;-35
2024/03/28 10:19:33;;;;;;;11.90;7.80;;;;;;;35.62;75.10;100816.75;5035648;28;69928;-35
2024/03/28 10:22:08;;;;;;;13.73;7.68;;;;;;;35.57;76.27;100826.53;5036048;28;66302;-34
2024/03/28 10:24:37;;;;;;;13.45;7.90;;;;;;;35.59;75.99;100831.72;5025839;28;70270;-34
2024/03/28 10:27:19;;;;;;;13.65;8.07;;;;;;;35.46;76.41;100835.63;5022408;28;65406;-35
2024/03/28 10:29:53;;;;;;;16.40;8.15;;;;;;;35.16;75.57;100783.41;5009945;28;69577;-33
2024/03/28 10:32:27;;;;;;;12.77;8.30;;;;;;;35.54;76.03;100843.38;5026937;28;65760;-34
2024/03/28 10:34:56;;;;;;;22.60;8.43;;;;;;;35.44;76.58;100843.25;5039110;28;70275;-35
2024/03/28 10:37:24;;;;;;;14.75;8.90;;;;;;;35.44;76.23;100843.25;5011415;28;66532;-34
2024/03/28 10:39:53;;;;;;;13.38;8.32;;;;;;;35.42;76.68;100850.84;5006810;28;70789;-34
2024/03/28 10:42:25;;;;;;;16.20;9.52;;;;;;;35.39;76.60;100853.28;5030127;28;66530;-34
2024/03/28 10:44:59;;;;;;;9.77;8.65;;;;;;;35.38;76.82;100855.16;5025055;28;69904;-34
2024/03/28 10:47:30;;;;;;;12.20;9.05;;;;;;;35.37;76.72;100850.78;5027698;28;65929;-34
2024/03/28 10:50:25;;;;;;;9.15;8.35;;;;;;;35.23;77.74;100863.13;5033120;28;70203;-34
2024/03/28 10:52:59;;;;;;;11.13;8.73;;;;;;;35.31;76.46;100868.16;4982319;28;65390;-35
2024/03/28 10:55:38;;;;;;;11.07;8.50;;;;;;;35.23;77.04;100866.69;5035013;28;70016;-35
2024/03/28 10:58:08;;;;;;;10.18;8.52;;;;;;;35.03;77.29;100834.47;5027692;28;65982;-34
2024/03/28 11:00:38;;;;;;;13.43;8.25;;;;;;;35.19;77.28;100856.50;5025681;28;69826;-34
2024/03/28 11:03:11;;;;;;;12.57;7.82;;;;;;;35.02;77.23;100842.88;5019634;28;66790;-35
2024/03/28 11:05:41;;;;;;;13.25;7.82;;;;;;;35.14;77.34;100865.47;5013377;28;69555;-36
2024/03/28 11:08:10;;;;;;;10.43;7.40;;;;;;;35.13;77.69;100859.19;5030573;28;65105;-35
2024/03/28 11:10:39;;;;;;;10.35;7.50;;;;;;;35.14;77.30;100869.00;5027418;28;69943;-34
2024/03/28 11:13:08;;;;;;;11.75;7.78;;;;;;;35.03;77.94;100869.06;5029909;28;65684;-35
2024/03/28 11:15:37;;;;;;;9.95;7.53;;;;;;;35.06;77.46;100880.34;5029682;28;69626;-34
2024/03/28 11:18:06;;;;;;;10.13;7.82;;;;;;;35.00;78.05;100884.03;5030304;28;65607;-34
2024/03/28 11:20:35;;;;;;;11.10;8.18;;;;;;;35.02;77.62;100889.22;5034972;28;70592;-34
2024/03/28 11:23:04;;;;;;;12.05;8.25;;;;;;;34.84;77.89;100869.31;5030553;28;65516;-35
2024/03/28 11:25:36;;;;;;;16.58;8.38;;;;;;;34.91;78.67;100888.25;5020330;28;70620;-34
2024/03/28 11:28:11;;;;;;;9.63;8.00;;;;;;;34.86;79.10;100897.16;5029863;28;66211;-35
2024/03/28 11:30:52;;;;;;;10.27;8.23;;;;;;;34.85;77.82;100900.13;5030517;28;69840;-35
2024/03/28 11:33:38;;;;;;;13.10;8.57;;;;;;;34.59;78.76;100880.63;5021202;28;65970;-35
2024/03/28 11:36:10;;;;;;;7.80;7.10;;;;;;;34.57;78.62;100893.66;5028181;28;70394;-34